sensor_id;sensor_type;location;lat;lon;timestamp;P1;durP1;ratioP1;P2;durP2;ratioP2
77105;SDS011;66057;54.718;18.426;2023-02-15T00:01:17;4.30;;;3.30;;
77105;SDS011;66057;54.718;18.426;2023-02-15T00:03:42;5.57;;;4.97;;
77105;SDS011;66057;54.718;18.426;2023-02-15T00:06:08;6.22;;;3.40;;
77105;SDS011;66057;54.718;18.426;2023-02-15T00:08:34;5.80;;;2.85;;
77105;SDS011;66057;54.718;18.426;2023-02-15T00:11:06;4.10;;;3.47;;
77105;SDS011;66057;54.718;18.426;2023-02-15T00:13:34;7.57;;;5.57;;
77105;SDS011;66057;54.718;18.426;2023-02-15T00:16:05;14.15;;;6.45;;
77105;SDS011;66057;54.718;18.426;2023-02-15T00:18:32;10.27;;;6.75;;
77105;SDS011;66057;54.718;18.426;2023-02-15T00:21:02;14.65;;;6.82;;
77105;SDS011;66057;54.718;18.426;2023-02-15T00:23:29;7.40;;;4.97;;
77105;SDS011;66057;54.718;18.426;2023-02-15T00:26:02;3.28;;;2.75;;
77105;SDS011;66057;54.718;18.426;2023-02-15T00:28:36;7.70;;;4.28;;
77105;SDS011;66057;54.718;18.426;2023-02-15T00:31:02;6.70;;;4.68;;
77105;SDS011;66057;54.718;18.426;2023-02-15T00:33:32;4.82;;;3.95;;
77105;SDS011;66057;54.718;18.426;2023-02-15T00:35:59;10.45;;;6.32;;
77105;SDS011;66057;54.718;18.426;2023-02-15T00:38:26;15.68;;;8.23;;
77105;SDS011;66057;54.718;18.426;2023-02-15T00:40:53;9.50;;;4.53;;
77105;SDS011;66057;54.718;18.426;2023-02-15T00:43:20;8.05;;;5.38;;
77105;SDS011;66057;54.718;18.426;2023-02-15T00:45:45;5.97;;;4.25;;
77105;SDS011;66057;54.718;18.426;2023-02-15T00:48:12;3.20;;;2.92;;
77105;SDS011;66057;54.718;18.426;2023-02-15T00:50:37;13.10;;;3.78;;
77105;SDS011;66057;54.718;18.426;2023-02-15T00:53:03;5.20;;;3.45;;
77105;SDS011;66057;54.718;18.426;2023-02-15T00:55:28;7.20;;;3.25;;
77105;SDS011;66057;54.718;18.426;2023-02-15T00:57:54;7.07;;;4.57;;
77105;SDS011;66057;54.718;18.426;2023-02-15T01:00:20;7.00;;;4.72;;
77105;SDS011;66057;54.718;18.426;2023-02-15T01:02:46;10.50;;;5.82;;
77105;SDS011;66057;54.718;18.426;2023-02-15T01:05:11;8.13;;;4.88;;
77105;SDS011;66057;54.718;18.426;2023-02-15T01:07:38;9.07;;;5.55;;
77105;SDS011;66057;54.718;18.426;2023-02-15T01:10:04;16.63;;;7.30;;
77105;SDS011;66057;54.718;18.426;2023-02-15T01:12:33;5.97;;;4.85;;
77105;SDS011;66057;54.718;18.426;2023-02-15T01:14:59;13.30;;;7.78;;
77105;SDS011;66057;54.718;18.426;2023-02-15T01:17:25;1.58;;;1.48;;
77105;SDS011;66057;54.718;18.426;2023-02-15T01:19:51;4.43;;;3.55;;
77105;SDS011;66057;54.718;18.426;2023-02-15T01:22:17;4.60;;;2.95;;
77105;SDS011;66057;54.718;18.426;2023-02-15T01:24:43;3.28;;;2.38;;
77105;SDS011;66057;54.718;18.426;2023-02-15T01:27:10;11.25;;;7.03;;
77105;SDS011;66057;54.718;18.426;2023-02-15T01:29:35;4.05;;;3.75;;
77105;SDS011;66057;54.718;18.426;2023-02-15T01:32:01;4.55;;;3.67;;
77105;SDS011;66057;54.718;18.426;2023-02-15T01:34:28;5.70;;;4.93;;
77105;SDS011;66057;54.718;18.426;2023-02-15T01:36:54;4.22;;;2.17;;
77105;SDS011;66057;54.718;18.426;2023-02-15T01:39:20;5.88;;;1.73;;
77105;SDS011;66057;54.718;18.426;2023-02-15T01:41:46;7.38;;;5.20;;
77105;SDS011;66057;54.718;18.426;2023-02-15T01:49:46;8.10;;;5.78;;
77105;SDS011;66057;54.718;18.426;2023-02-15T01:52:14;8.73;;;5.05;;
77105;SDS011;66057;54.718;18.426;2023-02-15T01:54:43;4.28;;;2.75;;
77105;SDS011;66057;54.718;18.426;2023-02-15T01:57:14;9.15;;;6.05;;
77105;SDS011;66057;54.718;18.426;2023-02-15T01:59:46;4.22;;;2.90;;
77105;SDS011;66057;54.718;18.426;2023-02-15T02:02:17;4.55;;;3.58;;
77105;SDS011;66057;54.718;18.426;2023-02-15T02:04:50;8.02;;;4.68;;
77105;SDS011;66057;54.718;18.426;2023-02-15T02:07:23;7.55;;;4.45;;
77105;SDS011;66057;54.718;18.426;2023-02-15T02:09:52;9.07;;;5.43;;
77105;SDS011;66057;54.718;18.426;2023-02-15T02:12:18;10.98;;;6.15;;
77105;SDS011;66057;54.718;18.426;2023-02-15T02:14:45;6.10;;;4.22;;
77105;SDS011;66057;54.718;18.426;2023-02-15T02:19:59;8.25;;;4.57;;
77105;SDS011;66057;54.718;18.426;2023-02-15T02:37:03;7.85;;;4.47;;
77105;SDS011;66057;54.718;18.426;2023-02-15T02:45:10;7.18;;;4.47;;
77105;SDS011;66057;54.718;18.426;2023-02-15T02:47:48;6.95;;;4.95;;
77105;SDS011;66057;54.718;18.426;2023-02-15T02:50:23;7.45;;;4.60;;
77105;SDS011;66057;54.718;18.426;2023-02-15T02:52:52;6.90;;;4.78;;
77105;SDS011;66057;54.718;18.426;2023-02-15T02:55:23;8.98;;;5.20;;
77105;SDS011;66057;54.718;18.426;2023-02-15T03:00:25;7.45;;;4.45;;
77105;SDS011;66057;54.718;18.426;2023-02-15T03:03:30;8.40;;;4.43;;
77105;SDS011;66057;54.718;18.426;2023-02-15T03:05:53;9.30;;;5.00;;
77105;SDS011;66057;54.718;18.426;2023-02-15T03:08:23;9.18;;;4.78;;
77105;SDS011;66057;54.718;18.426;2023-02-15T03:10:55;8.85;;;4.60;;
77105;SDS011;66057;54.718;18.426;2023-02-15T03:13:23;11.90;;;4.53;;
77105;SDS011;66057;54.718;18.426;2023-02-15T03:15:49;9.27;;;5.57;;
77105;SDS011;66057;54.718;18.426;2023-02-15T03:18:38;8.73;;;5.30;;
77105;SDS011;66057;54.718;18.426;2023-02-15T03:21:08;8.43;;;5.00;;
77105;SDS011;66057;54.718;18.426;2023-02-15T03:23:54;12.60;;;4.72;;
77105;SDS011;66057;54.718;18.426;2023-02-15T03:26:28;12.75;;;7.03;;
77105;SDS011;66057;54.718;18.426;2023-02-15T03:28:55;8.02;;;2.97;;
77105;SDS011;66057;54.718;18.426;2023-02-15T03:31:24;11.20;;;6.78;;
77105;SDS011;66057;54.718;18.426;2023-02-15T03:33:55;12.93;;;7.38;;
77105;SDS011;66057;54.718;18.426;2023-02-15T03:36:29;13.93;;;6.82;;
77105;SDS011;66057;54.718;18.426;2023-02-15T03:39:04;13.88;;;8.30;;
77105;SDS011;66057;54.718;18.426;2023-02-15T03:41:39;13.25;;;7.00;;
77105;SDS011;66057;54.718;18.426;2023-02-15T03:44:19;8.70;;;5.10;;
77105;SDS011;66057;54.718;18.426;2023-02-15T03:49:42;15.73;;;6.63;;
77105;SDS011;66057;54.718;18.426;2023-02-15T03:52:14;15.63;;;8.27;;
77105;SDS011;66057;54.718;18.426;2023-02-15T03:54:41;12.90;;;6.72;;
77105;SDS011;66057;54.718;18.426;2023-02-15T03:57:10;14.10;;;6.75;;
77105;SDS011;66057;54.718;18.426;2023-02-15T03:59:55;14.68;;;7.43;;
77105;SDS011;66057;54.718;18.426;2023-02-15T04:02:49;16.25;;;7.97;;
77105;SDS011;66057;54.718;18.426;2023-02-15T04:05:54;38.88;;;16.98;;
77105;SDS011;66057;54.718;18.426;2023-02-15T04:08:20;68.65;;;27.90;;
77105;SDS011;66057;54.718;18.426;2023-02-15T04:11:06;44.92;;;17.30;;
77105;SDS011;66057;54.718;18.426;2023-02-15T04:13:32;38.90;;;13.63;;
77105;SDS011;66057;54.718;18.426;2023-02-15T04:15:58;30.20;;;13.80;;
77105;SDS011;66057;54.718;18.426;2023-02-15T04:21:14;25.42;;;11.00;;
77105;SDS011;66057;54.718;18.426;2023-02-15T04:23:59;32.55;;;17.25;;
77105;SDS011;66057;54.718;18.426;2023-02-15T04:26:43;31.05;;;13.40;;
77105;SDS011;66057;54.718;18.426;2023-02-15T04:29:09;16.08;;;8.15;;
77105;SDS011;66057;54.718;18.426;2023-02-15T04:31:34;18.02;;;7.90;;
77105;SDS011;66057;54.718;18.426;2023-02-15T04:34:00;30.75;;;11.77;;
77105;SDS011;66057;54.718;18.426;2023-02-15T04:36:26;28.27;;;11.45;;
77105;SDS011;66057;54.718;18.426;2023-02-15T04:38:52;23.13;;;9.38;;
77105;SDS011;66057;54.718;18.426;2023-02-15T04:41:17;20.67;;;10.45;;
77105;SDS011;66057;54.718;18.426;2023-02-15T04:43:43;14.10;;;7.53;;
77105;SDS011;66057;54.718;18.426;2023-02-15T04:46:08;15.80;;;7.75;;
77105;SDS011;66057;54.718;18.426;2023-02-15T04:48:34;17.80;;;9.23;;
77105;SDS011;66057;54.718;18.426;2023-02-15T04:51:04;13.23;;;7.07;;
77105;SDS011;66057;54.718;18.426;2023-02-15T04:53:32;10.55;;;6.78;;
77105;SDS011;66057;54.718;18.426;2023-02-15T04:55:58;10.68;;;6.68;;
77105;SDS011;66057;54.718;18.426;2023-02-15T04:58:23;10.95;;;7.13;;
77105;SDS011;66057;54.718;18.426;2023-02-15T05:00:49;14.68;;;7.93;;
77105;SDS011;66057;54.718;18.426;2023-02-15T05:03:15;16.42;;;8.70;;
77105;SDS011;66057;54.718;18.426;2023-02-15T05:05:41;14.82;;;7.72;;
77105;SDS011;66057;54.718;18.426;2023-02-15T05:08:07;12.20;;;6.95;;
77105;SDS011;66057;54.718;18.426;2023-02-15T05:10:32;15.43;;;6.28;;
77105;SDS011;66057;54.718;18.426;2023-02-15T05:12:58;13.73;;;8.10;;
77105;SDS011;66057;54.718;18.426;2023-02-15T05:15:24;13.73;;;5.78;;
77105;SDS011;66057;54.718;18.426;2023-02-15T05:17:49;13.20;;;8.20;;
77105;SDS011;66057;54.718;18.426;2023-02-15T05:20:15;12.48;;;7.07;;
77105;SDS011;66057;54.718;18.426;2023-02-15T05:22:41;12.05;;;7.20;;
77105;SDS011;66057;54.718;18.426;2023-02-15T05:25:08;13.05;;;6.80;;
77105;SDS011;66057;54.718;18.426;2023-02-15T05:27:53;12.77;;;8.23;;
77105;SDS011;66057;54.718;18.426;2023-02-15T05:30:37;13.75;;;8.38;;
77105;SDS011;66057;54.718;18.426;2023-02-15T05:33:07;15.13;;;7.95;;
77105;SDS011;66057;54.718;18.426;2023-02-15T05:35:33;13.50;;;7.63;;
77105;SDS011;66057;54.718;18.426;2023-02-15T05:38:00;12.43;;;4.97;;
77105;SDS011;66057;54.718;18.426;2023-02-15T05:40:25;13.05;;;7.30;;
77105;SDS011;66057;54.718;18.426;2023-02-15T05:42:51;19.75;;;7.72;;
77105;SDS011;66057;54.718;18.426;2023-02-15T05:45:17;13.27;;;8.15;;
77105;SDS011;66057;54.718;18.426;2023-02-15T05:47:43;13.73;;;6.70;;
77105;SDS011;66057;54.718;18.426;2023-02-15T05:50:09;9.32;;;5.82;;
77105;SDS011;66057;54.718;18.426;2023-02-15T05:52:35;11.15;;;7.80;;
77105;SDS011;66057;54.718;18.426;2023-02-15T05:55:01;14.93;;;8.00;;
77105;SDS011;66057;54.718;18.426;2023-02-15T05:57:28;18.73;;;8.77;;
77105;SDS011;66057;54.718;18.426;2023-02-15T05:59:53;17.00;;;8.73;;
77105;SDS011;66057;54.718;18.426;2023-02-15T06:02:19;10.00;;;6.38;;
77105;SDS011;66057;54.718;18.426;2023-02-15T06:04:45;12.02;;;7.07;;
77105;SDS011;66057;54.718;18.426;2023-02-15T06:07:11;10.30;;;7.25;;
77105;SDS011;66057;54.718;18.426;2023-02-15T06:09:36;14.52;;;8.18;;
77105;SDS011;66057;54.718;18.426;2023-02-15T06:12:02;12.93;;;6.78;;
77105;SDS011;66057;54.718;18.426;2023-02-15T06:14:28;14.77;;;7.10;;
77105;SDS011;66057;54.718;18.426;2023-02-15T06:16:53;14.10;;;9.25;;
77105;SDS011;66057;54.718;18.426;2023-02-15T06:19:19;12.57;;;7.65;;
77105;SDS011;66057;54.718;18.426;2023-02-15T06:21:46;15.07;;;9.32;;
77105;SDS011;66057;54.718;18.426;2023-02-15T06:24:12;15.35;;;8.18;;
77105;SDS011;66057;54.718;18.426;2023-02-15T06:26:38;16.27;;;8.60;;
77105;SDS011;66057;54.718;18.426;2023-02-15T06:29:03;13.77;;;7.72;;
77105;SDS011;66057;54.718;18.426;2023-02-15T06:31:29;11.43;;;7.28;;
77105;SDS011;66057;54.718;18.426;2023-02-15T06:33:55;13.85;;;8.23;;
77105;SDS011;66057;54.718;18.426;2023-02-15T06:36:27;16.15;;;7.63;;
77105;SDS011;66057;54.718;18.426;2023-02-15T06:38:54;15.25;;;8.95;;
77105;SDS011;66057;54.718;18.426;2023-02-15T06:41:20;16.67;;;9.98;;
77105;SDS011;66057;54.718;18.426;2023-02-15T06:43:46;13.27;;;7.80;;
77105;SDS011;66057;54.718;18.426;2023-02-15T06:46:12;19.70;;;10.43;;
77105;SDS011;66057;54.718;18.426;2023-02-15T06:48:37;8.95;;;6.25;;
77105;SDS011;66057;54.718;18.426;2023-02-15T06:51:03;14.75;;;9.88;;
77105;SDS011;66057;54.718;18.426;2023-02-15T06:53:29;9.40;;;6.43;;
77105;SDS011;66057;54.718;18.426;2023-02-15T06:56:05;15.80;;;10.00;;
77105;SDS011;66057;54.718;18.426;2023-02-15T06:58:32;17.25;;;9.63;;
77105;SDS011;66057;54.718;18.426;2023-02-15T07:00:58;10.38;;;6.53;;
77105;SDS011;66057;54.718;18.426;2023-02-15T07:03:24;6.70;;;3.97;;
77105;SDS011;66057;54.718;18.426;2023-02-15T07:05:53;23.25;;;8.57;;
77105;SDS011;66057;54.718;18.426;2023-02-15T07:08:20;14.35;;;8.77;;
77105;SDS011;66057;54.718;18.426;2023-02-15T07:10:45;23.42;;;11.80;;
77105;SDS011;66057;54.718;18.426;2023-02-15T07:13:11;22.77;;;11.75;;
77105;SDS011;66057;54.718;18.426;2023-02-15T07:15:37;13.27;;;7.97;;
77105;SDS011;66057;54.718;18.426;2023-02-15T07:18:02;18.15;;;10.68;;
77105;SDS011;66057;54.718;18.426;2023-02-15T07:20:28;12.27;;;7.30;;
77105;SDS011;66057;54.718;18.426;2023-02-15T07:22:54;20.20;;;10.63;;
77105;SDS011;66057;54.718;18.426;2023-02-15T07:25:20;19.63;;;10.98;;
77105;SDS011;66057;54.718;18.426;2023-02-15T07:27:46;19.95;;;10.05;;
77105;SDS011;66057;54.718;18.426;2023-02-15T07:30:13;20.83;;;10.48;;
77105;SDS011;66057;54.718;18.426;2023-02-15T07:32:40;26.75;;;13.63;;
77105;SDS011;66057;54.718;18.426;2023-02-15T07:35:26;27.33;;;16.02;;
77105;SDS011;66057;54.718;18.426;2023-02-15T07:37:52;22.45;;;13.32;;
77105;SDS011;66057;54.718;18.426;2023-02-15T07:40:18;23.50;;;13.73;;
77105;SDS011;66057;54.718;18.426;2023-02-15T07:42:44;19.02;;;12.35;;
77105;SDS011;66057;54.718;18.426;2023-02-15T07:45:10;19.48;;;11.00;;
77105;SDS011;66057;54.718;18.426;2023-02-15T07:47:35;24.15;;;11.75;;
77105;SDS011;66057;54.718;18.426;2023-02-15T07:50:01;14.68;;;7.00;;
77105;SDS011;66057;54.718;18.426;2023-02-15T07:52:27;17.45;;;8.63;;
77105;SDS011;66057;54.718;18.426;2023-02-15T07:54:53;17.35;;;8.80;;
77105;SDS011;66057;54.718;18.426;2023-02-15T07:57:18;22.05;;;12.38;;
77105;SDS011;66057;54.718;18.426;2023-02-15T07:59:44;14.13;;;7.57;;
77105;SDS011;66057;54.718;18.426;2023-02-15T08:02:10;20.23;;;10.85;;
77105;SDS011;66057;54.718;18.426;2023-02-15T08:04:36;15.88;;;11.80;;
77105;SDS011;66057;54.718;18.426;2023-02-15T08:07:02;15.25;;;7.80;;
77105;SDS011;66057;54.718;18.426;2023-02-15T08:09:28;21.40;;;11.85;;
77105;SDS011;66057;54.718;18.426;2023-02-15T08:11:53;12.52;;;9.52;;
77105;SDS011;66057;54.718;18.426;2023-02-15T08:14:20;10.07;;;7.00;;
77105;SDS011;66057;54.718;18.426;2023-02-15T08:16:51;17.35;;;8.90;;
77105;SDS011;66057;54.718;18.426;2023-02-15T08:19:25;10.48;;;7.90;;
77105;SDS011;66057;54.718;18.426;2023-02-15T08:22:11;24.00;;;18.48;;
77105;SDS011;66057;54.718;18.426;2023-02-15T08:24:39;17.90;;;11.48;;
77105;SDS011;66057;54.718;18.426;2023-02-15T08:27:06;11.07;;;5.45;;
77105;SDS011;66057;54.718;18.426;2023-02-15T08:29:34;24.83;;;15.75;;
77105;SDS011;66057;54.718;18.426;2023-02-15T08:32:03;20.20;;;13.93;;
77105;SDS011;66057;54.718;18.426;2023-02-15T08:34:32;19.40;;;11.75;;
77105;SDS011;66057;54.718;18.426;2023-02-15T08:37:01;18.30;;;12.65;;
77105;SDS011;66057;54.718;18.426;2023-02-15T08:39:27;17.67;;;13.70;;
77105;SDS011;66057;54.718;18.426;2023-02-15T08:41:53;25.17;;;18.98;;
77105;SDS011;66057;54.718;18.426;2023-02-15T08:44:19;18.33;;;13.52;;
77105;SDS011;66057;54.718;18.426;2023-02-15T08:46:46;18.63;;;11.13;;
77105;SDS011;66057;54.718;18.426;2023-02-15T08:49:14;23.02;;;16.35;;
77105;SDS011;66057;54.718;18.426;2023-02-15T08:51:42;21.67;;;17.33;;
77105;SDS011;66057;54.718;18.426;2023-02-15T08:54:09;19.17;;;14.90;;
77105;SDS011;66057;54.718;18.426;2023-02-15T08:56:38;26.05;;;19.73;;
77105;SDS011;66057;54.718;18.426;2023-02-15T08:59:06;23.95;;;19.17;;
77105;SDS011;66057;54.718;18.426;2023-02-15T09:01:33;24.70;;;17.25;;
77105;SDS011;66057;54.718;18.426;2023-02-15T09:04:01;16.52;;;10.55;;
77105;SDS011;66057;54.718;18.426;2023-02-15T09:06:29;16.20;;;8.63;;
77105;SDS011;66057;54.718;18.426;2023-02-15T09:08:55;26.02;;;20.63;;
77105;SDS011;66057;54.718;18.426;2023-02-15T09:11:22;20.23;;;15.40;;
77105;SDS011;66057;54.718;18.426;2023-02-15T09:13:57;26.92;;;19.08;;
77105;SDS011;66057;54.718;18.426;2023-02-15T09:16:25;26.10;;;18.35;;
77105;SDS011;66057;54.718;18.426;2023-02-15T09:18:53;19.00;;;11.77;;
77105;SDS011;66057;54.718;18.426;2023-02-15T09:21:20;11.32;;;8.40;;
77105;SDS011;66057;54.718;18.426;2023-02-15T09:23:48;20.85;;;15.18;;
77105;SDS011;66057;54.718;18.426;2023-02-15T09:26:20;11.48;;;7.35;;
77105;SDS011;66057;54.718;18.426;2023-02-15T09:28:47;20.73;;;16.13;;
77105;SDS011;66057;54.718;18.426;2023-02-15T09:31:24;26.35;;;17.92;;
77105;SDS011;66057;54.718;18.426;2023-02-15T09:33:52;26.85;;;22.98;;
77105;SDS011;66057;54.718;18.426;2023-02-15T09:38:55;27.23;;;16.50;;
77105;SDS011;66057;54.718;18.426;2023-02-15T09:44:18;23.50;;;17.15;;
77105;SDS011;66057;54.718;18.426;2023-02-15T09:55:05;22.85;;;19.00;;
77105;SDS011;66057;54.718;18.426;2023-02-15T09:57:38;23.67;;;20.25;;
77105;SDS011;66057;54.718;18.426;2023-02-15T10:00:10;19.88;;;13.40;;
77105;SDS011;66057;54.718;18.426;2023-02-15T10:05:39;19.60;;;15.07;;
77105;SDS011;66057;54.718;18.426;2023-02-15T10:08:16;21.63;;;14.63;;
77105;SDS011;66057;54.718;18.426;2023-02-15T10:19:48;29.33;;;20.98;;
77105;SDS011;66057;54.718;18.426;2023-02-15T10:27:45;31.00;;;21.30;;
77105;SDS011;66057;54.718;18.426;2023-02-15T10:30:15;24.33;;;12.18;;
77105;SDS011;66057;54.718;18.426;2023-02-15T10:32:51;23.00;;;14.80;;
77105;SDS011;66057;54.718;18.426;2023-02-15T10:35:33;31.83;;;24.02;;
77105;SDS011;66057;54.718;18.426;2023-02-15T10:57:58;27.35;;;19.38;;
77105;SDS011;66057;54.718;18.426;2023-02-15T11:00:34;28.27;;;21.67;;
77105;SDS011;66057;54.718;18.426;2023-02-15T11:08:21;35.33;;;27.92;;
77105;SDS011;66057;54.718;18.426;2023-02-15T11:10:54;22.85;;;14.02;;
77105;SDS011;66057;54.718;18.426;2023-02-15T11:13:24;20.33;;;11.82;;
77105;SDS011;66057;54.718;18.426;2023-02-15T11:15:55;28.15;;;19.58;;
77105;SDS011;66057;54.718;18.426;2023-02-15T11:18:31;13.60;;;6.65;;
77105;SDS011;66057;54.718;18.426;2023-02-15T11:23:33;21.25;;;14.35;;
77105;SDS011;66057;54.718;18.426;2023-02-15T11:26:06;25.42;;;19.00;;
77105;SDS011;66057;54.718;18.426;2023-02-15T11:28:39;21.23;;;15.32;;
77105;SDS011;66057;54.718;18.426;2023-02-15T11:31:21;34.45;;;24.40;;
77105;SDS011;66057;54.718;18.426;2023-02-15T11:34:04;30.67;;;18.50;;
77105;SDS011;66057;54.718;18.426;2023-02-15T11:36:38;25.73;;;17.35;;
77105;SDS011;66057;54.718;18.426;2023-02-15T11:39:14;23.90;;;14.20;;
77105;SDS011;66057;54.718;18.426;2023-02-15T11:41:49;23.23;;;12.77;;
77105;SDS011;66057;54.718;18.426;2023-02-15T11:44:21;13.57;;;8.05;;
77105;SDS011;66057;54.718;18.426;2023-02-15T11:46:55;26.38;;;19.20;;
77105;SDS011;66057;54.718;18.426;2023-02-15T11:49:31;19.73;;;13.70;;
77105;SDS011;66057;54.718;18.426;2023-02-15T11:52:00;11.75;;;6.85;;
77105;SDS011;66057;54.718;18.426;2023-02-15T11:54:29;21.55;;;12.85;;
77105;SDS011;66057;54.718;18.426;2023-02-15T11:57:01;25.50;;;17.67;;
77105;SDS011;66057;54.718;18.426;2023-02-15T11:59:42;16.17;;;12.43;;
77105;SDS011;66057;54.718;18.426;2023-02-15T12:02:19;11.13;;;6.93;;
77105;SDS011;66057;54.718;18.426;2023-02-15T12:04:51;20.77;;;11.38;;
77105;SDS011;66057;54.718;18.426;2023-02-15T12:07:23;24.38;;;12.95;;
77105;SDS011;66057;54.718;18.426;2023-02-15T12:10:05;12.35;;;8.23;;
77105;SDS011;66057;54.718;18.426;2023-02-15T12:12:45;19.83;;;10.00;;
77105;SDS011;66057;54.718;18.426;2023-02-15T12:15:12;15.25;;;8.75;;
77105;SDS011;66057;54.718;18.426;2023-02-15T12:20:06;23.85;;;14.20;;
77105;SDS011;66057;54.718;18.426;2023-02-15T12:22:51;21.98;;;15.85;;
77105;SDS011;66057;54.718;18.426;2023-02-15T12:25:21;23.58;;;18.05;;
77105;SDS011;66057;54.718;18.426;2023-02-15T12:27:51;24.60;;;18.48;;
77105;SDS011;66057;54.718;18.426;2023-02-15T12:30:21;24.40;;;16.08;;
77105;SDS011;66057;54.718;18.426;2023-02-15T12:32:59;23.23;;;15.50;;
77105;SDS011;66057;54.718;18.426;2023-02-15T12:38:43;24.67;;;19.60;;
77105;SDS011;66057;54.718;18.426;2023-02-15T12:40:44;31.58;;;22.35;;
77105;SDS011;66057;54.718;18.426;2023-02-15T12:43:27;25.38;;;16.08;;
77105;SDS011;66057;54.718;18.426;2023-02-15T12:46:12;30.83;;;24.35;;
77105;SDS011;66057;54.718;18.426;2023-02-15T12:48:44;30.42;;;20.48;;
77105;SDS011;66057;54.718;18.426;2023-02-15T12:51:12;41.75;;;29.50;;
77105;SDS011;66057;54.718;18.426;2023-02-15T12:53:40;25.10;;;17.77;;
77105;SDS011;66057;54.718;18.426;2023-02-15T12:56:07;26.42;;;16.42;;
77105;SDS011;66057;54.718;18.426;2023-02-15T12:58:40;24.52;;;16.27;;
77105;SDS011;66057;54.718;18.426;2023-02-15T13:01:16;22.42;;;13.68;;
77105;SDS011;66057;54.718;18.426;2023-02-15T13:03:56;18.50;;;13.93;;
77105;SDS011;66057;54.718;18.426;2023-02-15T13:06:25;31.40;;;23.65;;
77105;SDS011;66057;54.718;18.426;2023-02-15T13:08:59;27.10;;;19.48;;
77105;SDS011;66057;54.718;18.426;2023-02-15T13:11:40;25.17;;;16.33;;
77105;SDS011;66057;54.718;18.426;2023-02-15T13:14:19;28.20;;;15.77;;
77105;SDS011;66057;54.718;18.426;2023-02-15T13:16:48;19.52;;;12.35;;
77105;SDS011;66057;54.718;18.426;2023-02-15T13:19:18;21.67;;;15.85;;
77105;SDS011;66057;54.718;18.426;2023-02-15T13:21:57;22.63;;;13.95;;
77105;SDS011;66057;54.718;18.426;2023-02-15T13:24:24;13.63;;;7.90;;
77105;SDS011;66057;54.718;18.426;2023-02-15T13:26:54;31.13;;;18.02;;
77105;SDS011;66057;54.718;18.426;2023-02-15T13:29:28;23.10;;;16.98;;
77105;SDS011;66057;54.718;18.426;2023-02-15T13:31:57;23.42;;;17.15;;
77105;SDS011;66057;54.718;18.426;2023-02-15T13:34:33;12.15;;;8.82;;
77105;SDS011;66057;54.718;18.426;2023-02-15T13:37:21;17.73;;;12.77;;
77105;SDS011;66057;54.718;18.426;2023-02-15T13:42:22;28.27;;;13.60;;
77105;SDS011;66057;54.718;18.426;2023-02-15T13:47:50;14.60;;;10.07;;
77105;SDS011;66057;54.718;18.426;2023-02-15T13:50:34;25.48;;;17.02;;
77105;SDS011;66057;54.718;18.426;2023-02-15T14:01:38;9.52;;;6.18;;
77105;SDS011;66057;54.718;18.426;2023-02-15T14:12:35;23.45;;;11.80;;
77105;SDS011;66057;54.718;18.426;2023-02-15T14:18:19;21.98;;;11.90;;
77105;SDS011;66057;54.718;18.426;2023-02-15T14:21:06;25.73;;;13.00;;
77105;SDS011;66057;54.718;18.426;2023-02-15T14:26:11;23.33;;;11.80;;
77105;SDS011;66057;54.718;18.426;2023-02-15T14:28:49;26.08;;;13.77;;
77105;SDS011;66057;54.718;18.426;2023-02-15T14:31:30;26.98;;;13.55;;
77105;SDS011;66057;54.718;18.426;2023-02-15T14:34:00;25.10;;;11.70;;
77105;SDS011;66057;54.718;18.426;2023-02-15T14:36:26;22.80;;;11.57;;
77105;SDS011;66057;54.718;18.426;2023-02-15T14:42:56;23.15;;;12.63;;
77105;SDS011;66057;54.718;18.426;2023-02-15T14:48:21;23.17;;;12.40;;
77105;SDS011;66057;54.718;18.426;2023-02-15T14:50:55;22.10;;;12.85;;
77105;SDS011;66057;54.718;18.426;2023-02-15T14:56:05;23.42;;;12.25;;
77105;SDS011;66057;54.718;18.426;2023-02-15T14:58:34;27.27;;;11.85;;
77105;SDS011;66057;54.718;18.426;2023-02-15T15:01:06;16.65;;;10.13;;
77105;SDS011;66057;54.718;18.426;2023-02-15T15:03:34;19.80;;;11.10;;
77105;SDS011;66057;54.718;18.426;2023-02-15T15:06:02;17.05;;;9.25;;
77105;SDS011;66057;54.718;18.426;2023-02-15T15:08:38;21.90;;;11.32;;
77105;SDS011;66057;54.718;18.426;2023-02-15T15:13:57;20.75;;;11.40;;
77105;SDS011;66057;54.718;18.426;2023-02-15T15:16:27;22.25;;;11.85;;
77105;SDS011;66057;54.718;18.426;2023-02-15T15:18:55;21.48;;;12.25;;
77105;SDS011;66057;54.718;18.426;2023-02-15T15:35:36;15.10;;;9.65;;
77105;SDS011;66057;54.718;18.426;2023-02-15T15:41:16;22.27;;;12.38;;
77105;SDS011;66057;54.718;18.426;2023-02-15T15:46:54;28.73;;;13.25;;
77105;SDS011;66057;54.718;18.426;2023-02-15T15:49:34;29.65;;;14.20;;
77105;SDS011;66057;54.718;18.426;2023-02-15T15:52:08;26.05;;;11.52;;
77105;SDS011;66057;54.718;18.426;2023-02-15T15:54:48;32.53;;;14.25;;
77105;SDS011;66057;54.718;18.426;2023-02-15T15:57:27;28.50;;;13.30;;
77105;SDS011;66057;54.718;18.426;2023-02-15T15:59:53;25.65;;;13.77;;
77105;SDS011;66057;54.718;18.426;2023-02-15T16:02:19;32.33;;;15.60;;
77105;SDS011;66057;54.718;18.426;2023-02-15T16:04:45;29.58;;;13.73;;
77105;SDS011;66057;54.718;18.426;2023-02-15T16:09:53;27.25;;;14.48;;
77105;SDS011;66057;54.718;18.426;2023-02-15T16:12:19;29.38;;;14.10;;
77105;SDS011;66057;54.718;18.426;2023-02-15T16:14:45;34.70;;;15.68;;
77105;SDS011;66057;54.718;18.426;2023-02-15T16:17:25;31.98;;;14.77;;
77105;SDS011;66057;54.718;18.426;2023-02-15T16:19:57;33.58;;;15.90;;
77105;SDS011;66057;54.718;18.426;2023-02-15T16:22:26;34.17;;;15.32;;
77105;SDS011;66057;54.718;18.426;2023-02-15T16:27:44;39.70;;;18.17;;
77105;SDS011;66057;54.718;18.426;2023-02-15T16:32:52;31.33;;;13.88;;
77105;SDS011;66057;54.718;18.426;2023-02-15T16:35:19;29.95;;;15.88;;
77105;SDS011;66057;54.718;18.426;2023-02-15T16:37:46;35.47;;;17.48;;
77105;SDS011;66057;54.718;18.426;2023-02-15T16:42:50;31.52;;;15.77;;
77105;SDS011;66057;54.718;18.426;2023-02-15T16:45:20;34.95;;;17.70;;
77105;SDS011;66057;54.718;18.426;2023-02-15T16:47:49;32.15;;;18.15;;
77105;SDS011;66057;54.718;18.426;2023-02-15T16:50:23;39.75;;;17.48;;
77105;SDS011;66057;54.718;18.426;2023-02-15T16:52:54;39.38;;;18.33;;
77105;SDS011;66057;54.718;18.426;2023-02-15T16:55:26;40.20;;;21.08;;
77105;SDS011;66057;54.718;18.426;2023-02-15T16:58:04;42.55;;;18.85;;
77105;SDS011;66057;54.718;18.426;2023-02-15T17:00:34;42.28;;;19.55;;
77105;SDS011;66057;54.718;18.426;2023-02-15T17:03:19;39.47;;;18.88;;
77105;SDS011;66057;54.718;18.426;2023-02-15T17:05:47;40.92;;;19.98;;
77105;SDS011;66057;54.718;18.426;2023-02-15T17:13:39;43.08;;;21.23;;
77105;SDS011;66057;54.718;18.426;2023-02-15T17:16:29;51.90;;;23.05;;
77105;SDS011;66057;54.718;18.426;2023-02-15T17:18:59;48.85;;;20.73;;
77105;SDS011;66057;54.718;18.426;2023-02-15T17:21:33;41.97;;;20.02;;
77105;SDS011;66057;54.718;18.426;2023-02-15T17:24:05;46.65;;;22.02;;
77105;SDS011;66057;54.718;18.426;2023-02-15T17:26:34;46.33;;;23.17;;
77105;SDS011;66057;54.718;18.426;2023-02-15T17:29:12;49.00;;;24.60;;
77105;SDS011;66057;54.718;18.426;2023-02-15T17:31:55;51.78;;;22.88;;
77105;SDS011;66057;54.718;18.426;2023-02-15T17:37:59;46.83;;;21.92;;